Ivesdale, IL (61851)

3:08 AM CDT on July 24, 2016 (GMT -0500)
City of Monticello Public Works | | Change Station
Active Advisory: Excessive Heat Warning

Elev 653 ft 40.03 °N, 88.58 °W | Updated 1 minute ago

Clear
Clear
77.4 °F
Feels Like 79 °F
N
0.0
Wind Variable Wind from SE
Gusts 4.0 mph

Today
High -- | Low -- °F
--% Chance of Precip.
Yesterday
High -- | Low -- °F
Precip. -- in
Pressure 29.94 in
Visibility 4.0 miles
Clouds Clear
Heat Index 79 °F
Dew Point 75 °F
Humidity 93%
Rainfall 0.00 in
Snow Depth Not available.
5:45 AM 8:14 PM
Waning Gibbous, 78% visible
METAR KCMI 240753Z AUTO 14005KT 4SM BR CLR 24/23 A2996 RMK AO2 SLP137 T02440233
Pressure 29.94 in
Visibility 4.0 miles
Clouds Clear
Heat Index 79 °F
Dew Point 75 °F
Humidity 93%
Rainfall 0.00 in
Snow Depth Not available.
5:45 AM 8:14 PM
Waning Gibbous, 78% visible
METAR KCMI 240753Z AUTO 14005KT 4SM BR CLR 24/23 A2996 RMK AO2 SLP137 T02440233

10-Day Weather Forecast

Almanac

Astronomy

Jul. 24, 2016 Rise Set
Actual Time
Civil Twilight
Nautical Twilight
Astronomical Twilight
Moon
Length of Visible Light
Length of Day
Tomorrow will be .
, % of the Moon is Illuminated

Today's Extremes

State Highs State Lows

Community

WunderPhotos

Upload Photos

1,927,041 photos uploaded!

WunderBlog® & News

Nearby

Air Quality

  Air Quality AQ Index Pollutant
Not available.

Snow Depth

Station Depth Elevation

Earthquake Activity

City Distance Mag. Time & Date
Minimum magnitude displayed is 2.5.

Coastal Water Temperatures

Place Temperature

Stations

Nearby Weather Stations

Station Location Temp. Windchill Dew Point Humidity Wind Precip. Elev Updated Type
                   

Watches & Warnings

Excessive Heat Warning
Issued: 2:43 AM CDT Jul. 24, 2016 – National Weather Service

... Excessive heat warning remains in effect until 7 PM CDT this
evening...

* temperatures... highs of 92 to 95 degrees this afternoon.

* Heat Index... Peak afternoon heat index values of 100 to 108
degrees.

* Impacts... there is a high risk of heat related illnesses for
people with prolonged outdoor exposure... or without access to
air conditioning. The elderly... small children... and pets are
especially susceptible to the heat.

Precautionary/preparedness actions...

An excessive heat warning means that a prolonged period of
dangerously hot temperatures will occur. The combination of hot
temperatures and high humidity will combine to create a dangerous
situation in which heat illnesses are likely. Drink plenty of
water... stay in an air conditioned room... stay out of the sun...
and check up on relatives and neighbors. Young children and pets
should never be left unattended in vehicles under any
circumstances. This is especially true during hot weather when
car interiors can reach lethal temperatures in a matter of
minutes.



Shimon